Time;durP1;ratioP1;P1;durP2;ratioP2;P2;SDS_P1;SDS_P2;PMS_P1;PMS_P2;Temp;Humidity;BMP_temperature;BMP_pressure;BME280_temperature;BME280_humidity;BME280_pressure;Samples;Min_cycle;Max_cycle;Signal;HPM_P1;HPM_P2
2023/12/19 00:00:26;;;;;;;19.07;15.70;;;;;;;1.08;100.00;151647.00;5078440;28;20499;-74
2023/12/19 00:02:52;;;;;;;20.40;16.17;;;;;;;1.04;100.00;151636.69;5063846;28;20473;-74
2023/12/19 00:05:20;;;;;;;17.23;14.30;;;;;;;1.00;100.00;151626.44;5075937;28;20873;-74
2023/12/19 00:07:46;;;;;;;18.60;14.90;;;;;;;1.00;100.00;151626.44;5057594;28;20469;-74
2023/12/19 00:10:13;;;;;;;15.43;13.70;;;;;;;1.00;100.00;151626.44;5063615;28;20917;-74
2023/12/19 00:12:40;;;;;;;13.77;11.90;;;;;;;1.02;100.00;151631.56;5079045;28;20620;-74
2023/12/19 00:15:08;;;;;;;16.23;12.40;;;;;;;1.03;100.00;151634.09;5070669;28;20879;-74
2023/12/19 00:17:34;;;;;;;16.07;12.50;;;;;;;1.05;100.00;151638.00;5042900;28;20457;-74
2023/12/19 00:20:01;;;;;;;15.87;11.63;;;;;;;1.08;100.00;151647.00;5076246;28;20900;-74
2023/12/19 00:22:29;;;;;;;15.47;12.60;;;;;;;1.09;100.00;151649.53;5081657;28;20858;-74
2023/12/19 00:24:55;;;;;;;16.67;12.00;;;;;;;1.09;100.00;151649.53;5063593;28;20479;-74
2023/12/19 00:27:22;;;;;;;13.60;12.20;;;;;;;1.06;100.00;151641.81;5063320;28;20460;-74
2023/12/19 00:29:48;;;;;;;14.50;12.03;;;;;;;1.04;100.00;151636.69;5083971;28;20441;-74
2023/12/19 00:32:15;;;;;;;18.73;13.17;;;;;;;1.04;100.00;151636.69;5073032;28;20855;-74
2023/12/19 00:34:41;;;;;;;14.20;12.03;;;;;;;1.02;100.00;151631.56;5062094;28;20445;-74
2023/12/19 00:37:08;;;;;;;16.50;12.67;;;;;;;0.97;100.00;151618.72;5063180;28;20452;-74
2023/12/19 00:39:37;;;;;;;16.00;12.13;;;;;;;0.98;100.00;151621.28;5086105;28;20457;-74
2023/12/19 00:42:04;;;;;;;13.50;10.37;;;;;;;1.00;100.00;151625.16;5062539;28;20510;-74
2023/12/19 00:44:31;;;;;;;12.27;10.43;;;;;;;1.01;100.00;151628.97;5081260;28;20485;-74
2023/12/19 00:46:57;;;;;;;15.00;10.40;;;;;;;1.04;100.00;151636.69;5079657;28;20916;-74
2023/12/19 00:49:24;;;;;;;14.93;10.53;;;;;;;1.05;100.00;151639.28;5075301;28;20446;-74
2023/12/19 00:51:50;;;;;;;15.27;11.30;;;;;;;1.04;100.00;151636.69;5045357;28;20498;-74
2023/12/19 00:54:17;;;;;;;14.37;10.47;;;;;;;1.05;100.00;151638.00;5063700;28;20438;-74
2023/12/19 00:56:45;;;;;;;13.60;10.60;;;;;;;1.05;100.00;151639.28;5063708;28;20453;-74
2023/12/19 00:59:11;;;;;;;14.63;11.37;;;;;;;1.03;100.00;151634.09;5063904;28;20843;-74
2023/12/19 01:01:38;;;;;;;13.20;10.50;;;;;;;1.00;100.00;151626.44;5058448;28;20560;-74
2023/12/19 01:04:04;;;;;;;11.80;10.07;;;;;;;0.99;100.00;151622.56;5085613;28;20488;-74
2023/12/19 01:06:31;;;;;;;11.53;9.80;;;;;;;0.98;100.00;151621.28;5070239;28;20457;-74
2023/12/19 01:08:59;;;;;;;15.53;12.07;;;;;;;0.97;100.00;151618.72;5076696;28;20964;-74
2023/12/19 01:11:26;;;;;;;14.80;11.40;;;;;;;0.96;100.00;151616.16;5062992;28;20464;-74
2023/12/19 01:13:54;;;;;;;14.00;11.67;;;;;;;0.96;100.00;151616.16;5084952;28;20541;-74
2023/12/19 01:16:20;;;;;;;15.73;13.67;;;;;;;0.94;100.00;151611.03;5066382;28;20457;-74
2023/12/19 01:18:47;;;;;;;15.07;12.00;;;;;;;0.93;100.00;151608.44;5067666;28;20445;-74
2023/12/19 01:21:14;;;;;;;13.77;11.20;;;;;;;0.94;100.00;151609.72;5078976;28;20456;-74
2023/12/19 01:23:40;;;;;;;16.90;12.73;;;;;;;0.89;100.00;151596.88;5064693;28;20444;-74
2023/12/19 01:26:07;;;;;;;14.00;12.47;;;;;;;0.88;100.00;151594.31;5077923;28;20531;-74
2023/12/19 01:28:34;;;;;;;14.70;11.70;;;;;;;0.86;100.00;151590.47;5063619;28;20551;-74
2023/12/19 01:31:02;;;;;;;13.00;11.20;;;;;;;0.84;100.00;151584.06;5059217;28;20472;-74
2023/12/19 01:33:29;;;;;;;15.40;11.40;;;;;;;0.83;100.00;151582.75;5065388;28;20896;-74
2023/12/19 01:35:55;;;;;;;12.50;10.07;;;;;;;0.81;100.00;151577.63;5094123;28;20444;-74
2023/12/19 01:38:22;;;;;;;13.00;10.53;;;;;;;0.80;100.00;151575.03;5078773;28;20476;-74
2023/12/19 01:40:48;;;;;;;12.50;11.20;;;;;;;0.79;100.00;151572.50;5059159;28;20438;-74
2023/12/19 01:43:19;;;;;;;13.47;11.07;;;;;;;0.77;100.00;151566.09;5069109;28;20447;-74
2023/12/19 01:45:46;;;;;;;15.53;11.40;;;;;;;0.77;100.00;151566.09;5084006;28;20557;-74
2023/12/19 01:48:15;;;;;;;13.60;10.90;;;;;;;0.71;100.00;151551.97;5079951;28;20476;-74
2023/12/19 01:50:41;;;;;;;13.03;10.10;;;;;;;0.66;100.00;151539.13;5089869;28;20439;-74
2023/12/19 01:53:09;;;;;;;10.40;9.03;;;;;;;0.64;100.00;151533.94;5072937;28;20468;-74
2023/12/19 01:55:37;;;;;;;12.73;8.03;;;;;;;0.63;100.00;151531.41;5068898;28;21224;-74
2023/12/19 01:58:04;;;;;;;10.27;8.37;;;;;;;0.61;100.00;151527.53;5063177;28;20983;-74
2023/12/19 02:00:31;;;;;;;10.00;7.70;;;;;;;0.60;100.00;151523.72;5066117;28;20445;-74
2023/12/19 02:02:58;;;;;;;7.80;6.53;;;;;;;0.63;100.00;151531.41;5074313;28;20471;-74
2023/12/19 02:05:26;;;;;;;8.57;7.40;;;;;;;0.60;100.00;151523.72;5066338;28;20472;-74
2023/12/19 02:07:52;;;;;;;7.73;6.87;;;;;;;0.54;100.00;151508.28;5049690;28;20475;-74
2023/12/19 02:10:19;;;;;;;8.30;6.43;;;;;;;0.53;100.00;151505.75;5071107;28;20432;-74
2023/12/19 02:12:46;;;;;;;7.40;5.20;;;;;;;0.55;100.00;151512.16;5072147;28;20464;-74
2023/12/19 02:15:13;;;;;;;6.10;4.80;;;;;;;0.60;100.00;151523.72;5081222;28;20449;-74
2023/12/19 02:18:35;;;;;;;4.60;3.83;;;;;;;0.60;100.00;151525.00;5087278;28;20461;-74
2023/12/19 02:21:04;;;;;;;4.10;3.47;;;;;;;0.58;100.00;151519.81;5070913;28;20463;-74
2023/12/19 02:23:32;;;;;;;4.60;3.90;;;;;;;0.58;100.00;151519.81;5064412;28;20639;-74
2023/12/19 02:25:59;;;;;;;7.83;5.50;;;;;;;0.65;100.00;151536.53;5081897;28;20527;-74
2023/12/19 02:28:25;;;;;;;6.53;5.83;;;;;;;0.68;100.00;151542.97;5066144;28;20521;-74
2023/12/19 02:30:52;;;;;;;8.43;6.57;;;;;;;0.69;100.00;151546.78;5086589;28;20445;-74
2023/12/19 02:33:18;;;;;;;6.40;5.50;;;;;;;0.63;100.00;151530.13;5067434;28;20472;-74
2023/12/19 02:35:45;;;;;;;5.47;4.07;;;;;;;0.63;100.00;151531.41;5070448;28;20452;-74
2023/12/19 02:38:11;;;;;;;4.30;3.47;;;;;;;0.67;100.00;151541.66;5086477;28;20915;-74
2023/12/19 02:40:39;;;;;;;4.87;2.93;;;;;;;0.71;100.00;151551.97;5081247;28;20853;-74
2023/12/19 02:43:06;;;;;;;2.70;2.20;;;;;;;0.78;100.00;151569.91;5083318;28;20445;-74
2023/12/19 02:45:34;;;;;;;4.10;2.50;;;;;;;0.81;100.00;151577.63;5070461;28;20898;-74
2023/12/19 02:48:00;;;;;;;2.43;2.07;;;;;;;0.82;100.00;151580.16;5083226;28;20502;-74
2023/12/19 02:50:27;;;;;;;3.20;2.37;;;;;;;0.86;100.00;151589.19;5067009;28;20461;-73
2023/12/19 02:52:53;;;;;;;3.47;2.20;;;;;;;0.87;100.00;151593.06;5062814;28;20966;-74
2023/12/19 02:55:20;;;;;;;2.83;2.13;;;;;;;0.92;100.00;151605.91;5080065;28;21291;-73
2023/12/19 02:57:47;;;;;;;4.47;2.73;;;;;;;0.96;100.00;151616.16;5045381;28;20437;-73
2023/12/19 03:00:14;;;;;;;4.63;2.43;;;;;;;0.97;100.00;151618.72;5064136;28;20836;-73
2023/12/19 03:02:41;;;;;;;2.77;2.20;;;;;;;1.00;100.00;151626.44;5061628;28;20461;-73
2023/12/19 03:05:08;;;;;;;2.70;1.97;;;;;;;1.00;100.00;151626.44;5072003;28;20569;-74
2023/12/19 03:07:35;;;;;;;3.00;2.40;;;;;;;1.00;100.00;151626.44;5084526;28;20559;-75
2023/12/19 03:10:05;;;;;;;3.53;2.50;;;;;;;0.99;100.00;151622.56;5089378;28;20448;-75
2023/12/19 03:12:32;;;;;;;3.60;2.43;;;;;;;0.91;100.00;151603.31;5064523;28;20456;-75
2023/12/19 03:15:00;;;;;;;2.50;1.80;;;;;;;0.92;100.00;151605.91;5072483;28;20475;-75
2023/12/19 03:17:27;;;;;;;3.30;2.53;;;;;;;0.91;100.00;151602.00;5058617;28;20446;-75
2023/12/19 03:19:53;;;;;;;3.30;3.00;;;;;;;0.95;100.00;151613.59;5086009;28;20461;-75
2023/12/19 03:22:20;;;;;;;3.60;2.60;;;;;;;0.91;100.00;151602.00;5066601;28;20863;-75
2023/12/19 03:24:46;;;;;;;4.37;3.13;;;;;;;0.83;100.00;151581.47;5068265;28;20814;-75
2023/12/19 03:27:13;;;;;;;2.60;2.27;;;;;;;0.71;100.00;151551.97;5064271;28;20464;-75
2023/12/19 03:29:39;;;;;;;3.80;2.70;;;;;;;0.65;100.00;151536.53;5070494;28;20811;-75
2023/12/19 03:32:08;;;;;;;3.87;2.63;;;;;;;0.61;100.00;151527.53;5090357;28;20489;-75
2023/12/19 03:34:37;;;;;;;3.90;2.90;;;;;;;0.59;100.00;151522.41;5080383;28;20514;-75
2023/12/19 03:37:04;;;;;;;3.40;2.50;;;;;;;0.61;100.00;151526.25;5064763;28;20456;-75
2023/12/19 03:39:31;;;;;;;3.63;2.60;;;;;;;0.66;100.00;151537.84;5089144;28;20912;-75
2023/12/19 03:41:57;;;;;;;3.37;2.57;;;;;;;0.64;100.00;151533.94;5070709;28;20460;-75
2023/12/19 03:44:24;;;;;;;2.97;2.47;;;;;;;0.56;100.00;151513.41;5082619;28;20496;-75
2023/12/19 03:46:50;;;;;;;3.10;2.40;;;;;;;0.59;100.00;151521.13;5079223;28;20883;-75
2023/12/19 03:49:18;;;;;;;3.90;2.73;;;;;;;0.58;100.00;151518.59;5051187;28;21159;-75
2023/12/19 03:51:45;;;;;;;3.57;2.63;;;;;;;0.56;100.00;151513.41;5068070;28;20457;-75
2023/12/19 03:54:11;;;;;;;2.53;2.20;;;;;;;0.57;100.00;151516.00;5053082;28;20457;-75
2023/12/19 03:56:38;;;;;;;2.90;2.07;;;;;;;0.55;100.00;151510.88;5065083;28;20440;-75
2023/12/19 03:59:04;;;;;;;3.00;2.10;;;;;;;0.53;100.00;151505.75;5064739;28;20449;-75
2023/12/19 04:01:31;;;;;;;2.90;2.47;;;;;;;0.55;100.00;151510.88;5061110;28;20530;-75
2023/12/19 04:03:58;;;;;;;2.87;2.20;;;;;;;0.57;100.00;151517.28;5059229;28;20475;-75
2023/12/19 04:06:26;;;;;;;3.20;2.43;;;;;;;0.52;100.00;151503.16;5069395;28;20498;-75
2023/12/19 04:08:53;;;;;;;2.93;2.30;;;;;;;0.52;100.00;151503.16;5070470;28;20448;-75
2023/12/19 04:11:20;;;;;;;2.90;2.20;;;;;;;0.52;100.00;151503.16;5053453;28;20461;-75
2023/12/19 04:13:46;;;;;;;2.57;2.17;;;;;;;0.51;100.00;151501.88;5062142;28;20867;-75
2023/12/19 04:16:13;;;;;;;3.47;2.40;;;;;;;0.53;100.00;151505.75;5066407;28;20441;-75
2023/12/19 04:18:39;;;;;;;3.83;2.80;;;;;;;0.51;100.00;151501.88;5088125;28;21021;-75
2023/12/19 04:21:07;;;;;;;2.87;2.33;;;;;;;0.53;100.00;151507.00;5068339;28;20461;-75
2023/12/19 04:23:36;;;;;;;4.33;2.37;;;;;;;0.55;100.00;151510.88;5079486;28;20476;-75
2023/12/19 04:26:03;;;;;;;2.67;1.93;;;;;;;0.53;100.00;151507.00;5064500;28;20488;-75
2023/12/19 04:28:29;;;;;;;4.10;2.50;;;;;;;0.57;100.00;151516.00;5086539;28;20495;-75
2023/12/19 04:30:56;;;;;;;4.60;3.10;;;;;;;0.57;100.00;151517.28;5086130;28;20457;-75
2023/12/19 04:33:22;;;;;;;2.47;2.20;;;;;;;0.56;100.00;151513.41;5076994;28;20457;-75
2023/12/19 04:35:48;;;;;;;3.10;2.00;;;;;;;0.56;100.00;151513.41;5086162;28;20448;-75
2023/12/19 04:38:15;;;;;;;2.97;1.83;;;;;;;0.57;100.00;151516.00;5067134;28;20457;-74
2023/12/19 04:40:43;;;;;;;2.80;1.80;;;;;;;0.56;100.00;151513.41;5066591;28;20468;-75
2023/12/19 04:43:09;;;;;;;3.87;2.23;;;;;;;0.52;100.00;151504.47;5084517;28;20448;-75
2023/12/19 04:45:36;;;;;;;3.27;2.23;;;;;;;0.50;100.00;151499.28;5065273;28;20468;-74
2023/12/19 04:48:03;;;;;;;2.03;1.80;;;;;;;0.51;100.00;151500.56;5068974;28;20477;-75
2023/12/19 04:50:29;;;;;;;3.20;2.73;;;;;;;0.51;100.00;151501.88;5083255;28;20459;-75
2023/12/19 04:52:56;;;;;;;4.20;2.47;;;;;;;0.52;100.00;151503.16;5088533;28;20483;-74
2023/12/19 04:55:22;;;;;;;3.40;2.17;;;;;;;0.50;100.00;151499.28;5088849;28;20830;-75
2023/12/19 04:57:50;;;;;;;2.87;2.10;;;;;;;0.44;100.00;151482.63;5069453;28;20461;-74
2023/12/19 05:00:17;;;;;;;2.83;2.10;;;;;;;0.42;100.00;151478.78;5081080;28;20513;-75
2023/12/19 05:02:43;;;;;;;2.87;2.30;;;;;;;0.45;100.00;151486.44;5082887;28;20821;-75
2023/12/19 05:05:10;;;;;;;3.63;2.27;;;;;;;0.44;100.00;151482.63;5059330;28;20514;-75
2023/12/19 05:07:37;;;;;;;3.73;2.57;;;;;;;0.43;100.00;151480.03;5088511;28;20775;-75
2023/12/19 05:10:04;;;;;;;2.83;2.47;;;;;;;0.44;100.00;151482.63;5053262;28;20837;-74
2023/12/19 05:12:30;;;;;;;4.03;2.47;;;;;;;0.44;100.00;151482.63;5067680;28;20456;-75
2023/12/19 05:14:58;;;;;;;3.20;2.47;;;;;;;0.45;100.00;151485.22;5074001;28;20939;-75
2023/12/19 05:17:24;;;;;;;5.20;2.80;;;;;;;0.48;100.00;151492.88;5067808;28;20441;-75
2023/12/19 05:19:51;;;;;;;4.50;3.50;;;;;;;0.48;100.00;151494.16;5059564;28;21111;-74
2023/12/19 05:22:17;;;;;;;4.83;3.50;;;;;;;0.49;100.00;151495.44;5081172;28;20485;-74
2023/12/19 05:24:44;;;;;;;4.10;3.67;;;;;;;0.49;100.00;151495.44;5067963;28;20510;-75
2023/12/19 05:27:11;;;;;;;5.90;4.50;;;;;;;0.47;100.00;151491.63;5063243;28;20534;-74
2023/12/19 05:29:37;;;;;;;6.97;4.30;;;;;;;0.48;100.00;151492.88;5064739;28;20597;-74
2023/12/19 05:32:05;;;;;;;8.70;4.77;;;;;;;0.47;100.00;151490.34;5061351;28;20556;-74
2023/12/19 05:34:32;;;;;;;8.13;4.63;;;;;;;0.49;100.00;151495.44;5069913;28;20808;-74
2023/12/19 05:36:59;;;;;;;6.47;5.60;;;;;;;0.45;100.00;151485.22;5058529;28;20489;-74
2023/12/19 05:39:26;;;;;;;7.27;6.33;;;;;;;0.41;100.00;151474.91;5065806;28;20468;-74
2023/12/19 05:41:56;;;;;;;5.87;5.30;;;;;;;0.41;100.00;151476.22;5069206;28;20966;-74
2023/12/19 05:44:23;;;;;;;8.03;5.87;;;;;;;0.37;100.00;151464.66;5087043;28;20510;-74
2023/12/19 05:46:50;;;;;;;11.33;7.47;;;;;;;0.33;100.00;151454.38;5058024;28;20473;-74
2023/12/19 05:49:18;;;;;;;9.70;7.40;;;;;;;0.31;100.00;151449.25;5086212;28;20456;-74
2023/12/19 05:52:03;;;;;;;8.73;6.87;;;;;;;0.29;100.00;151445.38;5086449;28;20521;-74
2023/12/19 05:54:29;;;;;;;9.90;6.67;;;;;;;0.24;100.00;151431.28;5064886;28;20473;-74
2023/12/19 05:56:56;;;;;;;8.37;7.03;;;;;;;0.23;100.00;151428.72;5084505;28;20537;-74
2023/12/19 05:59:22;;;;;;;7.00;5.97;;;;;;;0.20;100.00;151422.28;5067622;28;20437;-74
2023/12/19 06:01:49;;;;;;;6.93;5.53;;;;;;;0.20;100.00;151421.00;5062227;28;20591;-74
2023/12/19 06:04:15;;;;;;;6.83;5.63;;;;;;;0.20;100.00;151421.00;5066615;28;20473;-75
2023/12/19 06:06:44;;;;;;;6.33;5.47;;;;;;;0.22;100.00;151426.13;5068924;28;20489;-75
2023/12/19 06:09:11;;;;;;;5.07;4.20;;;;;;;0.18;100.00;151417.19;5079205;28;20449;-74
2023/12/19 06:11:38;;;;;;;7.03;4.00;;;;;;;0.16;100.00;151412.00;5038281;28;20977;-74
2023/12/19 06:14:05;;;;;;;7.03;4.23;;;;;;;0.19;100.00;151418.41;5081753;28;20460;-73
2023/12/19 06:16:32;;;;;;;8.20;4.30;;;;;;;0.21;100.00;151424.88;5084155;28;20543;-74
2023/12/19 06:18:59;;;;;;;5.60;4.27;;;;;;;0.22;100.00;151427.41;5057608;28;20454;-74
2023/12/19 06:21:25;;;;;;;6.17;4.43;;;;;;;0.23;100.00;151428.72;5080232;28;21118;-79
2023/12/19 06:23:53;;;;;;;6.10;4.27;;;;;;;0.25;100.00;151433.84;5083146;28;20857;-80
2023/12/19 06:26:20;;;;;;;6.90;4.30;;;;;;;0.27;100.00;151440.25;5058487;28;20487;-79
2023/12/19 06:28:47;;;;;;;5.00;4.43;;;;;;;0.26;100.00;151437.72;5075834;28;20449;-80
2023/12/19 06:31:13;;;;;;;4.80;3.70;;;;;;;0.21;100.00;151423.59;5082825;28;20445;-80
2023/12/19 06:33:40;;;;;;;5.10;3.80;;;;;;;0.17;100.00;151413.28;5064052;28;20847;-80
2023/12/19 06:36:07;;;;;;;4.10;3.70;;;;;;;0.18;100.00;151417.19;5085516;28;20449;-81
2023/12/19 06:38:34;;;;;;;4.00;3.37;;;;;;;0.20;100.00;151421.00;5052910;28;20456;-80
2023/12/19 06:41:01;;;;;;;4.73;2.60;;;;;;;0.20;100.00;151421.00;5072166;28;20456;-80
2023/12/19 06:43:28;;;;;;;4.07;3.17;;;;;;;0.23;100.00;151430.00;5064109;28;20530;-74
2023/12/19 06:45:54;;;;;;;3.93;3.40;;;;;;;0.31;100.00;151449.25;5071727;28;20513;-73
2023/12/19 06:48:23;;;;;;;5.77;3.63;;;;;;;0.32;100.00;151453.06;5084270;28;20454;-72
2023/12/19 06:50:49;;;;;;;6.40;3.60;;;;;;;0.31;100.00;151449.25;5079820;28;20788;-73
2023/12/19 06:53:16;;;;;;;3.80;3.37;;;;;;;0.31;100.00;151449.25;5087143;28;20517;-73
2023/12/19 06:55:42;;;;;;;4.60;3.97;;;;;;;0.34;100.00;151458.25;5083447;28;20461;-74
2023/12/19 06:58:11;;;;;;;4.40;3.70;;;;;;;0.38;100.00;151467.19;5062841;28;21164;-74
2023/12/19 07:00:39;;;;;;;7.43;5.70;;;;;;;0.43;100.00;151480.03;5045474;28;20820;-73
2023/12/19 07:03:06;;;;;;;8.00;5.87;;;;;;;0.45;100.00;151486.44;5080795;28;20622;-79
2023/12/19 07:05:33;;;;;;;8.80;6.37;;;;;;;0.40;100.00;151473.63;5068259;28;20843;-73
2023/12/19 07:08:00;;;;;;;8.60;6.50;;;;;;;0.34;100.00;151456.97;5063197;28;20440;-74
2023/12/19 07:10:27;;;;;;;10.57;7.33;;;;;;;0.26;100.00;151436.41;5068853;28;20518;-73
2023/12/19 07:12:54;;;;;;;9.03;7.37;;;;;;;0.19;100.00;151418.41;5068358;28;20979;-73
2023/12/19 07:15:21;;;;;;;7.80;6.00;;;;;;;0.15;100.00;151408.19;5057982;28;20445;-74
2023/12/19 07:17:48;;;;;;;9.07;6.50;;;;;;;0.11;100.00;151397.94;5082542;28;20807;-74
2023/12/19 07:20:15;;;;;;;8.50;6.80;;;;;;;0.05;100.00;151382.50;5082995;28;20456;-74
2023/12/19 07:22:42;;;;;;;9.50;6.93;;;;;;;0.00;100.00;151372.22;5068289;28;20528;-74
2023/12/19 07:25:09;;;;;;;9.70;7.70;;;;;;;-0.01;100.00;151369.69;5087140;28;20448;-73
2023/12/19 07:27:36;;;;;;;9.50;7.67;;;;;;;-0.05;100.00;151358.09;5086554;28;20580;-73
2023/12/19 07:30:03;;;;;;;9.40;7.50;;;;;;;-0.11;100.00;151344.00;5076246;28;20455;-73
2023/12/19 07:32:31;;;;;;;9.97;6.90;;;;;;;-0.02;100.00;151367.09;5084554;28;20452;-73
2023/12/19 07:34:57;;;;;;;10.20;7.73;;;;;;;0.18;100.00;151415.88;5074935;28;20498;-75
2023/12/19 07:37:24;;;;;;;9.10;7.80;;;;;;;0.30;100.00;151447.97;5087216;28;20506;-74
2023/12/19 07:39:50;;;;;;;11.97;8.33;;;;;;;0.37;100.00;151464.66;5086187;28;20540;-75
2023/12/19 07:42:17;;;;;;;9.43;7.77;;;;;;;0.42;100.00;151478.78;5086437;28;20445;-74
2023/12/19 07:44:44;;;;;;;9.53;8.30;;;;;;;0.42;100.00;151478.78;5085051;28;20816;-74
2023/12/19 07:47:10;;;;;;;13.50;8.40;;;;;;;0.41;100.00;151474.91;5066505;28;20480;-75
2023/12/19 07:49:38;;;;;;;8.87;7.97;;;;;;;0.43;100.00;151481.31;5068053;28;20465;-74
2023/12/19 07:52:05;;;;;;;11.60;8.30;;;;;;;0.48;100.00;151494.16;5083906;28;20457;-74
2023/12/19 07:54:31;;;;;;;15.60;9.93;;;;;;;0.49;100.00;151496.75;5067731;28;20471;-74
2023/12/19 07:56:59;;;;;;;14.27;9.90;;;;;;;0.45;100.00;151485.22;5067116;28;20865;-74
2023/12/19 07:59:25;;;;;;;15.17;8.93;;;;;;;0.37;100.00;151464.66;5085104;28;20453;-74
2023/12/19 08:01:52;;;;;;;11.17;8.50;;;;;;;0.30;100.00;151446.66;5067959;28;20868;-74
2023/12/19 08:04:18;;;;;;;12.90;10.27;;;;;;;0.34;100.00;151456.97;5085294;28;20492;-75
2023/12/19 08:06:48;;;;;;;13.10;10.03;;;;;;;0.40;100.00;151472.31;5073993;28;20462;-74
2023/12/19 08:09:15;;;;;;;12.23;9.73;;;;;;;0.39;100.00;151469.78;5062578;28;20549;-74
2023/12/19 08:11:41;;;;;;;13.00;11.27;;;;;;;0.49;100.00;151495.44;5085804;28;20845;-74
2023/12/19 08:14:08;;;;;;;10.93;9.40;;;;;;;0.53;100.00;151505.75;5073396;28;20453;-75
2023/12/19 08:16:34;;;;;;;13.13;10.13;;;;;;;0.54;100.00;151508.28;5083631;28;20453;-74
2023/12/19 08:19:01;;;;;;;11.03;9.43;;;;;;;0.52;100.00;151504.47;5084340;28;20906;-74
2023/12/19 08:21:27;;;;;;;14.47;9.70;;;;;;;0.49;100.00;151495.44;5085941;28;20548;-74
2023/12/19 08:23:55;;;;;;;11.70;10.40;;;;;;;0.42;100.00;151477.50;5085871;28;20529;-74
2023/12/19 08:26:22;;;;;;;13.97;10.70;;;;;;;0.38;100.00;151467.19;5075126;28;20480;-75
2023/12/19 08:28:49;;;;;;;17.97;12.20;;;;;;;0.37;100.00;151464.66;5066106;28;20573;-74
2023/12/19 08:31:15;;;;;;;12.57;10.73;;;;;;;0.34;100.00;151456.97;5074322;28;20463;-74
2023/12/19 08:33:43;;;;;;;16.23;11.70;;;;;;;0.30;100.00;151446.66;5066020;28;20461;-75
2023/12/19 08:36:10;;;;;;;15.17;11.67;;;;;;;0.30;100.00;151447.97;5085165;28;21059;-75
2023/12/19 08:38:37;;;;;;;15.23;11.60;;;;;;;0.27;100.00;151438.97;5067655;28;20457;-74
2023/12/19 08:41:06;;;;;;;15.70;11.23;;;;;;;0.31;100.00;151450.53;5086495;28;20541;-74
2023/12/19 08:43:33;;;;;;;14.60;12.23;;;;;;;0.38;100.00;151467.19;5086263;28;20488;-74
2023/12/19 08:45:59;;;;;;;14.63;11.73;;;;;;;0.43;100.00;151480.03;5083695;28;20514;-74
2023/12/19 08:48:26;;;;;;;16.77;12.87;;;;;;;0.44;100.00;151483.91;5084924;28;20835;-74
2023/12/19 08:50:52;;;;;;;15.80;12.07;;;;;;;0.44;100.00;151482.63;5084481;28;20448;-75
2023/12/19 08:53:19;;;;;;;15.53;12.00;;;;;;;0.38;100.00;151467.19;5083757;28;20452;-74
2023/12/19 08:55:47;;;;;;;17.77;12.90;;;;;;;0.38;100.00;151468.50;5067296;28;20865;-74
2023/12/19 08:58:15;;;;;;;17.53;12.20;;;;;;;0.46;100.00;151487.75;5085601;28;20507;-75
2023/12/19 09:00:41;;;;;;;20.50;14.30;;;;;;;0.46;100.00;151487.75;5059069;28;20494;-75
2023/12/19 09:03:08;;;;;;;16.70;11.97;;;;;;;0.47;100.00;151490.34;5083981;28;20986;-75
2023/12/19 09:05:35;;;;;;;18.50;13.13;;;;;;;0.54;100.00;151508.28;5085507;28;20499;-75
2023/12/19 09:08:02;;;;;;;17.17;13.50;;;;;;;0.55;100.00;151510.88;5065107;28;20470;-75
2023/12/19 09:10:30;;;;;;;19.93;13.67;;;;;;;0.53;100.00;151507.00;5068986;28;20434;-75
2023/12/19 09:12:57;;;;;;;19.40;12.77;;;;;;;0.57;100.00;151516.00;5083042;28;20452;-74
2023/12/19 09:15:25;;;;;;;18.97;14.33;;;;;;;0.67;100.00;151540.38;5064216;28;20815;-74
2023/12/19 09:17:52;;;;;;;16.13;13.20;;;;;;;0.70;100.00;151549.38;5084521;28;21094;-75
2023/12/19 09:20:18;;;;;;;17.27;13.33;;;;;;;0.74;100.00;151559.66;5085517;28;20449;-75
2023/12/19 09:22:45;;;;;;;16.60;13.00;;;;;;;0.79;100.00;151572.50;5061994;28;20472;-74
2023/12/19 09:25:14;;;;;;;16.70;12.30;;;;;;;0.86;100.00;151590.47;5082573;28;20455;-74
2023/12/19 09:27:41;;;;;;;16.73;13.60;;;;;;;0.90;100.00;151600.72;5084470;28;20475;-74
2023/12/19 09:30:09;;;;;;;18.80;13.50;;;;;;;0.94;100.00;151611.03;5083159;28;20482;-74
2023/12/19 09:32:37;;;;;;;19.83;14.20;;;;;;;0.99;100.00;151623.84;5071357;28;20479;-74
2023/12/19 09:35:04;;;;;;;18.40;13.60;;;;;;;1.06;100.00;151641.81;5083405;28;20535;-74
2023/12/19 09:37:31;;;;;;;17.07;12.93;;;;;;;1.09;100.00;151649.53;5084747;28;20530;-75
2023/12/19 09:39:57;;;;;;;16.80;13.37;;;;;;;1.18;100.00;151672.69;5065389;28;20453;-74
2023/12/19 09:42:24;;;;;;;19.77;14.17;;;;;;;1.26;100.00;151690.66;5084908;28;20841;-74
2023/12/19 09:44:51;;;;;;;16.80;14.53;;;;;;;1.34;100.00;151711.19;5065557;28;20457;-74
2023/12/19 09:47:23;;;;;;;19.07;13.67;;;;;;;1.44;100.00;151736.88;5085395;28;20481;-74
2023/12/19 09:49:54;;;;;;;18.77;14.17;;;;;;;1.48;100.00;151747.19;5081994;28;20449;-74
2023/12/19 09:52:23;;;;;;;18.97;14.20;;;;;;;1.51;100.00;151754.91;5082338;28;20466;-74
2023/12/19 09:54:51;;;;;;;14.97;12.27;;;;;;;1.55;100.00;151766.47;5048614;28;20449;-74
2023/12/19 09:57:18;;;;;;;17.30;13.40;;;;;;;1.63;100.00;151785.72;5074167;28;20449;-74
2023/12/19 09:59:46;;;;;;;15.93;13.00;;;;;;;1.74;100.00;151815.31;5083516;28;20828;-74
2023/12/19 10:02:12;;;;;;;15.70;13.13;;;;;;;1.73;100.00;151811.41;5082087;28;20954;-74
2023/12/19 10:04:39;;;;;;;13.33;11.47;;;;;;;1.68;100.00;151798.56;5086037;28;20479;-74
2023/12/19 10:07:07;;;;;;;14.63;11.23;;;;;;;1.72;100.00;151810.13;5089159;28;20525;-74
2023/12/19 10:09:33;;;;;;;16.87;13.67;;;;;;;1.81;100.00;151833.28;5077919;28;20445;-74
2023/12/19 10:12:05;;;;;;;16.47;12.83;;;;;;;1.85;100.00;151843.53;5085272;28;20517;-74
2023/12/19 10:14:32;;;;;;;16.57;12.60;;;;;;;1.80;100.00;151829.44;5085280;28;20444;-74
2023/12/19 10:16:59;;;;;;;15.20;12.17;;;;;;;1.76;100.00;151819.13;5067758;28;21004;-74
2023/12/19 10:19:27;;;;;;;16.07;13.27;;;;;;;1.65;100.00;151790.84;5074473;28;20992;-74
2023/12/19 10:22:07;;;;;;;14.33;12.13;;;;;;;1.60;100.00;151778.00;5087906;28;20452;-74
2023/12/19 10:24:33;;;;;;;17.87;11.70;;;;;;;1.50;100.00;151752.31;5061487;28;20528;-74
2023/12/19 10:27:05;;;;;;;14.87;11.97;;;;;;;1.47;100.00;151745.91;5064258;28;20990;-74
2023/12/19 10:29:36;;;;;;;14.00;12.20;;;;;;;1.44;100.00;151738.19;5086841;28;20444;-74
2023/12/19 10:32:12;;;;;;;17.47;13.10;;;;;;;1.39;100.00;151725.34;5065741;28;20449;-74
2023/12/19 10:34:39;;;;;;;15.30;13.10;;;;;;;1.34;100.00;151712.50;5063649;28;20446;-74
2023/12/19 10:37:11;;;;;;;17.23;12.80;;;;;;;1.30;100.00;151700.94;5087727;28;20450;-74
2023/12/19 10:39:38;;;;;;;17.23;12.83;;;;;;;1.25;100.00;151689.34;5083021;28;20445;-74
2023/12/19 10:42:05;;;;;;;16.23;12.10;;;;;;;1.19;100.00;151675.22;5087441;28;20459;-74
2023/12/19 10:44:33;;;;;;;16.60;13.17;;;;;;;1.13;100.00;151658.53;5052840;28;20452;-74
2023/12/19 10:47:01;;;;;;;17.27;12.70;;;;;;;1.05;100.00;151638.00;5086136;28;20887;-74
2023/12/19 10:49:28;;;;;;;15.60;12.40;;;;;;;0.96;100.00;151616.16;5083699;28;20452;-74
2023/12/19 10:52:00;;;;;;;17.70;12.87;;;;;;;0.92;100.00;151605.91;5067452;28;20445;-73
2023/12/19 10:54:28;;;;;;;17.67;13.60;;;;;;;0.90;100.00;151600.72;5066331;28;20492;-73
2023/12/19 10:57:05;;;;;;;17.10;14.10;;;;;;;0.88;100.00;151595.59;5074656;28;20456;-74
2023/12/19 10:59:32;;;;;;;18.03;11.70;;;;;;;0.87;100.00;151591.75;5082941;28;20440;-73
2023/12/19 11:02:05;;;;;;;13.67;10.53;;;;;;;0.77;100.00;151566.09;5081830;28;20461;-74
2023/12/19 11:04:35;;;;;;;18.07;13.13;;;;;;;0.63;100.00;151531.41;5082911;28;20855;-74
2023/12/19 11:07:04;;;;;;;15.60;11.97;;;;;;;0.63;100.00;151531.41;5083848;28;20522;-74
2023/12/19 11:09:34;;;;;;;15.63;12.93;;;;;;;0.67;100.00;151541.66;5077129;28;20507;-74
2023/12/19 11:12:01;;;;;;;15.60;12.47;;;;;;;0.66;100.00;151539.13;5065690;28;21036;-74
2023/12/19 11:14:28;;;;;;;17.90;13.30;;;;;;;0.64;100.00;151532.72;5083716;28;20453;-73
2023/12/19 11:16:59;;;;;;;20.60;13.53;;;;;;;0.62;100.00;151528.81;5057471;28;20827;-73